createdAt,value
2022-11-19T00:01:49.963Z,12.93
2022-11-19T00:04:46.840Z,12.75
2022-11-19T00:07:43.651Z,12.20
2022-11-19T00:10:40.710Z,12.02
2022-11-19T00:13:39.651Z,10.75
2022-11-19T00:16:36.557Z,10.88
2022-11-19T00:19:33.460Z,11.07
2022-11-19T00:22:30.292Z,11.13
2022-11-19T00:25:30.808Z,10.38
2022-11-19T00:28:27.628Z,10.73
2022-11-19T00:31:24.917Z,9.20
2022-11-19T00:34:21.822Z,10.45
2022-11-19T00:37:18.647Z,10.73
2022-11-19T00:40:15.624Z,11.13
2022-11-19T00:43:30.787Z,10.80
2022-11-19T00:46:31.752Z,9.80
2022-11-19T00:49:28.682Z,8.82
2022-11-19T00:52:25.551Z,10.48
2022-11-19T00:55:22.394Z,10.82
2022-11-19T00:58:19.491Z,9.98
2022-11-19T01:01:19.237Z,11.38
2022-11-19T01:04:16.207Z,10.73
2022-11-19T01:07:13.113Z,10.45
2022-11-19T01:10:10.171Z,11.68
2022-11-19T01:13:25.449Z,11.23
2022-11-19T01:16:28.360Z,10.55
2022-11-19T01:19:25.259Z,11.05
2022-11-19T01:22:22.111Z,7.35
2022-11-19T01:25:18.976Z,9.27
2022-11-19T01:28:15.829Z,7.97
2022-11-19T01:31:28.681Z,8.90
2022-11-19T01:34:25.542Z,9.90
2022-11-19T01:37:22.390Z,9.25
2022-11-19T01:40:19.522Z,9.80
2022-11-19T01:43:16.544Z,8.52
2022-11-19T01:46:17.817Z,8.18
2022-11-19T01:49:20.261Z,7.70
2022-11-19T01:52:17.601Z,8.10
2022-11-19T01:55:15.248Z,8.25
2022-11-19T01:58:17.572Z,7.57
2022-11-19T02:01:16.389Z,8.00
2022-11-19T02:04:16.424Z,7.03
2022-11-19T02:07:14.099Z,9.88
2022-11-19T02:10:11.458Z,8.60
2022-11-19T02:13:42.663Z,9.68
2022-11-19T02:16:42.427Z,10.27
2022-11-19T02:20:18.679Z,10.30
2022-11-19T02:23:24.083Z,10.93
2022-11-19T02:27:03.116Z,13.25
2022-11-19T02:30:18.276Z,12.23
2022-11-19T02:33:40.776Z,12.40
2022-11-19T02:37:05.304Z,14.02
2022-11-19T02:40:08.266Z,12.82
2022-11-19T02:43:10.963Z,10.98
2022-11-19T02:46:16.448Z,12.50
2022-11-19T02:49:15.362Z,13.02
2022-11-19T02:52:15.538Z,13.15
2022-11-19T02:55:15.056Z,13.93
2022-11-19T02:58:37.940Z,13.65
2022-11-19T03:01:57.274Z,14.13
2022-11-19T03:04:55.713Z,15.07
2022-11-19T03:07:52.632Z,13.93
2022-11-19T03:11:24.731Z,12.65
2022-11-19T03:14:50.044Z,16.15
2022-11-19T03:18:15.462Z,15.80
2022-11-19T03:21:47.190Z,12.40
2022-11-19T03:24:58.839Z,13.65
2022-11-19T03:28:05.274Z,12.93
2022-11-19T03:31:04.356Z,14.75
2022-11-19T03:34:08.909Z,13.43
2022-11-19T03:37:09.398Z,14.25
2022-11-19T03:40:08.997Z,13.85
2022-11-19T03:43:09.874Z,12.60
2022-11-19T03:46:13.183Z,12.55
2022-11-19T03:49:13.235Z,11.38
2022-11-19T03:52:19.806Z,12.00
2022-11-19T03:55:16.921Z,11.90
2022-11-19T03:58:13.835Z,12.30
2022-11-19T04:01:11.947Z,11.55
2022-11-19T04:04:27.164Z,11.68
2022-11-19T04:07:24.197Z,11.25
2022-11-19T04:10:21.212Z,11.35
2022-11-19T04:13:18.125Z,11.63
2022-11-19T04:16:14.942Z,12.45
2022-11-19T04:19:11.848Z,11.23
2022-11-19T04:22:09.616Z,9.95
2022-11-19T04:25:06.837Z,10.63
2022-11-19T04:28:03.687Z,10.32
2022-11-19T04:31:00.549Z,10.50
2022-11-19T04:33:57.403Z,10.73
2022-11-19T04:36:54.251Z,10.70
2022-11-19T04:39:51.069Z,10.07
2022-11-19T04:42:47.873Z,10.70
2022-11-19T04:45:44.687Z,9.07
2022-11-19T04:48:41.561Z,8.48
2022-11-19T04:51:38.481Z,10.35
2022-11-19T04:54:35.392Z,9.70
2022-11-19T04:57:32.644Z,9.13
2022-11-19T05:00:29.577Z,10.30
2022-11-19T05:03:26.416Z,9.20
2022-11-19T05:06:23.231Z,8.57
2022-11-19T05:09:20.311Z,8.60
2022-11-19T05:12:17.454Z,9.13
2022-11-19T05:15:14.309Z,8.70
2022-11-19T05:18:11.971Z,9.98
2022-11-19T05:21:09.142Z,9.10
2022-11-19T05:24:06.337Z,8.75
2022-11-19T05:27:03.622Z,8.93
2022-11-19T05:30:00.450Z,8.48
2022-11-19T05:32:57.301Z,7.85
2022-11-19T05:35:54.130Z,10.57
2022-11-19T05:38:50.967Z,8.90
2022-11-19T05:41:47.793Z,7.22
2022-11-19T05:44:44.630Z,8.95
2022-11-19T05:47:44.733Z,10.13
2022-11-19T05:50:45.247Z,9.75
2022-11-19T05:53:43.066Z,9.10
2022-11-19T05:56:40.754Z,9.10
2022-11-19T05:59:43.516Z,9.82
2022-11-19T06:02:40.831Z,9.50
2022-11-19T06:05:40.470Z,9.57
2022-11-19T06:08:37.670Z,8.13
2022-11-19T06:11:52.685Z,9.55
2022-11-19T06:14:49.569Z,9.60
2022-11-19T06:17:46.415Z,8.45
2022-11-19T06:20:43.277Z,9.48
2022-11-19T06:23:40.139Z,9.73
2022-11-19T06:26:37.924Z,8.75
2022-11-19T06:29:34.793Z,10.27
2022-11-19T06:32:31.700Z,9.32
2022-11-19T06:35:28.509Z,9.77
2022-11-19T06:38:25.835Z,10.73
2022-11-19T06:41:22.835Z,8.60
2022-11-19T06:44:19.735Z,8.82
2022-11-19T06:47:16.579Z,11.05
2022-11-19T06:50:13.413Z,17.38
2022-11-19T06:53:10.241Z,12.07
2022-11-19T06:56:08.029Z,11.52
2022-11-19T06:59:04.850Z,9.75
2022-11-19T07:02:01.692Z,9.20
2022-11-19T07:04:58.604Z,9.85
2022-11-19T07:08:00.137Z,8.65
2022-11-19T07:10:59.845Z,11.55
2022-11-19T07:13:57.700Z,11.88
2022-11-19T07:16:56.632Z,9.68
2022-11-19T07:19:53.559Z,9.57
2022-11-19T07:22:53.663Z,13.52
2022-11-19T07:25:53.539Z,12.25
2022-11-19T07:28:51.177Z,12.45
2022-11-19T07:31:50.532Z,12.40
2022-11-19T07:34:47.554Z,10.40
2022-11-19T07:37:44.425Z,11.38
2022-11-19T07:40:41.289Z,12.13
2022-11-19T07:43:38.200Z,9.98
2022-11-19T07:46:35.443Z,10.68
2022-11-19T07:49:32.305Z,10.45
2022-11-19T07:52:29.153Z,11.73
2022-11-19T07:55:26.413Z,11.23
2022-11-19T07:58:23.318Z,10.43
2022-11-19T08:01:23.176Z,8.48
2022-11-19T08:04:20.117Z,9.60
2022-11-19T08:07:17.118Z,10.55
2022-11-19T08:10:14.108Z,10.38
2022-11-19T08:13:10.923Z,10.20
2022-11-19T08:16:37.779Z,11.02
2022-11-19T08:19:34.723Z,10.02
2022-11-19T08:22:31.575Z,9.27
2022-11-19T08:25:28.519Z,10.73
2022-11-19T08:28:25.404Z,8.65
2022-11-19T08:31:22.242Z,10.27
2022-11-19T08:34:19.774Z,10.30
2022-11-19T08:37:17.191Z,11.02
2022-11-19T08:40:14.389Z,9.90
2022-11-19T08:43:11.231Z,9.88
2022-11-19T08:46:08.916Z,10.63
2022-11-19T08:49:06.455Z,9.15
2022-11-19T08:52:03.361Z,9.70
2022-11-19T08:55:00.264Z,11.52
2022-11-19T08:58:06.403Z,12.38
2022-11-19T09:01:15.037Z,10.30
2022-11-19T09:04:11.975Z,13.43
2022-11-19T09:07:08.854Z,10.90
2022-11-19T09:10:06.289Z,13.32
2022-11-19T09:13:04.452Z,13.13
2022-11-19T09:16:01.660Z,10.50
2022-11-19T09:18:58.657Z,11.27
2022-11-19T09:21:55.466Z,11.88
2022-11-19T09:24:52.314Z,10.70
2022-11-19T09:27:49.216Z,10.00
2022-11-19T09:30:53.867Z,12.23
2022-11-19T09:33:52.512Z,9.75
2022-11-19T09:36:49.403Z,10.40
2022-11-19T09:39:46.363Z,11.05
2022-11-19T09:43:15.472Z,10.88
2022-11-19T09:46:47.886Z,12.23
2022-11-19T09:49:52.872Z,14.48
2022-11-19T09:53:17.295Z,12.63
2022-11-19T09:56:25.403Z,11.88
2022-11-19T09:59:36.475Z,13.00
2022-11-19T10:02:33.444Z,12.25
2022-11-19T10:06:08.379Z,11.40
2022-11-19T10:09:37.160Z,10.85
2022-11-19T10:13:12.060Z,13.27
2022-11-19T10:16:08.972Z,11.55
2022-11-19T10:19:37.527Z,11.32
2022-11-19T10:23:02.372Z,11.80
2022-11-19T10:26:06.692Z,12.10
2022-11-19T10:29:21.496Z,10.70
2022-11-19T10:32:42.846Z,13.52
2022-11-19T10:35:50.073Z,12.55
2022-11-19T10:39:17.250Z,11.43
2022-11-19T10:42:32.235Z,11.05
2022-11-19T10:45:30.117Z,11.35
2022-11-19T10:48:38.009Z,12.93
2022-11-19T10:51:41.628Z,11.50
2022-11-19T10:54:39.838Z,12.23
2022-11-19T10:57:37.011Z,11.27
2022-11-19T11:00:35.488Z,11.13
2022-11-19T11:03:52.189Z,12.32
2022-11-19T11:06:57.411Z,12.13
2022-11-19T11:09:54.260Z,11.65
2022-11-19T11:13:10.745Z,11.32
2022-11-19T11:16:13.294Z,11.07
2022-11-19T11:19:20.061Z,11.90
2022-11-19T11:22:19.825Z,10.27
2022-11-19T11:25:23.273Z,10.82
2022-11-19T11:28:23.303Z,10.98
2022-11-19T11:31:45.909Z,11.27
2022-11-19T11:34:44.067Z,11.90
2022-11-19T11:37:41.094Z,9.93
2022-11-19T11:40:38.021Z,10.38
2022-11-19T11:43:38.557Z,8.98
2022-11-19T11:46:48.006Z,10.65
2022-11-19T11:49:51.452Z,10.90
2022-11-19T11:52:53.817Z,11.13
2022-11-19T11:56:02.547Z,9.65
2022-11-19T11:59:30.439Z,11.77
2022-11-19T12:02:34.013Z,10.55
2022-11-19T12:06:01.506Z,10.18
2022-11-19T12:09:44.586Z,10.60
2022-11-19T12:12:50.754Z,9.95
2022-11-19T12:16:22.133Z,9.85
2022-11-19T12:19:57.435Z,9.88
2022-11-19T12:23:14.557Z,10.90
2022-11-19T12:26:36.783Z,9.43
2022-11-19T12:30:06.141Z,10.05
2022-11-19T12:33:39.927Z,10.85
2022-11-19T12:37:18.825Z,9.07
2022-11-19T12:40:31.105Z,9.40
2022-11-19T12:44:09.482Z,12.50
2022-11-19T12:47:44.750Z,10.68
2022-11-19T12:50:56.904Z,10.50
2022-11-19T12:54:36.117Z,12.02
2022-11-19T12:58:00.301Z,31.00
2022-11-19T13:01:05.669Z,12.57
2022-11-19T13:04:11.444Z,14.55
2022-11-19T13:07:41.296Z,20.35
2022-11-19T13:11:22.332Z,21.03
2022-11-19T13:14:38.171Z,15.82
2022-11-19T13:17:44.529Z,27.05
2022-11-19T13:21:07.168Z,18.30
2022-11-19T13:24:36.757Z,12.70
2022-11-19T13:27:33.632Z,23.77
2022-11-19T13:30:33.609Z,38.40
2022-11-19T13:33:51.447Z,22.95
2022-11-19T13:37:17.081Z,32.60
2022-11-19T13:40:40.490Z,41.28
2022-11-19T13:43:55.991Z,27.13
2022-11-19T13:46:59.735Z,22.98
2022-11-19T13:50:06.332Z,53.03
2022-11-19T13:53:19.049Z,27.38
2022-11-19T13:56:17.499Z,21.40
2022-11-19T14:00:15.758Z,31.02
2022-11-19T14:04:00.342Z,14.75
2022-11-19T14:07:30.725Z,13.88
2022-11-19T14:14:46.053Z,24.30
2022-11-19T14:18:13.497Z,17.42
2022-11-19T14:22:03.308Z,14.88
2022-11-19T14:25:19.003Z,11.15
2022-11-19T14:28:52.072Z,15.13
2022-11-19T14:32:02.756Z,18.75
2022-11-19T14:35:02.846Z,10.55
2022-11-19T14:38:19.893Z,11.30
2022-11-19T14:41:31.127Z,9.98
2022-11-19T14:44:27.850Z,11.60
2022-11-19T14:47:28.618Z,10.98
2022-11-19T14:50:30.839Z,10.40
2022-11-19T14:53:27.741Z,9.77
2022-11-19T14:56:25.215Z,11.55
2022-11-19T14:59:31.307Z,10.32
2022-11-19T15:02:46.089Z,10.40
2022-11-19T15:05:46.353Z,11.68
2022-11-19T15:08:59.001Z,11.25
2022-11-19T15:11:55.863Z,10.93
2022-11-19T15:15:07.607Z,11.32
2022-11-19T15:18:35.153Z,12.00
2022-11-19T15:22:15.938Z,27.77
2022-11-19T15:25:52.412Z,27.00
2022-11-19T15:29:12.271Z,13.77
2022-11-19T15:33:03.838Z,29.05
2022-11-19T15:36:18.867Z,26.17
2022-11-19T15:39:42.849Z,24.00
2022-11-19T15:43:08.781Z,32.20
2022-11-19T15:46:51.015Z,14.57
2022-11-19T15:49:51.132Z,38.88
2022-11-19T15:53:14.529Z,32.10
2022-11-19T15:56:14.444Z,26.85
2022-11-19T15:59:15.434Z,23.60
2022-11-19T16:02:38.628Z,15.27
2022-11-19T16:05:35.592Z,60.17
2022-11-19T16:08:33.482Z,18.02
2022-11-19T16:11:54.134Z,17.10
2022-11-19T16:18:16.587Z,13.32
2022-11-19T16:21:22.949Z,13.90
2022-11-19T16:24:40.018Z,15.52
2022-11-19T16:27:45.038Z,15.18
2022-11-19T16:31:00.413Z,27.85
2022-11-19T16:33:58.005Z,14.52
2022-11-19T16:36:55.219Z,34.78
2022-11-19T16:39:53.352Z,26.90
2022-11-19T16:43:00.149Z,63.38
2022-11-19T16:45:57.909Z,28.02
2022-11-19T16:49:00.754Z,16.33
2022-11-19T16:51:58.240Z,16.38
2022-11-19T16:54:55.095Z,16.88
2022-11-19T16:58:02.511Z,19.92
2022-11-19T17:00:59.746Z,24.38
2022-11-19T17:04:07.616Z,38.58
2022-11-19T17:07:05.425Z,17.15
2022-11-19T17:10:34.077Z,14.32
2022-11-19T17:13:32.646Z,10.55
2022-11-19T17:16:29.534Z,9.52
2022-11-19T17:19:33.609Z,11.40
2022-11-19T17:22:35.656Z,10.95
2022-11-19T17:25:32.518Z,11.52
2022-11-19T17:28:45.252Z,9.75
2022-11-19T17:31:47.946Z,13.90
2022-11-19T17:34:49.187Z,12.95
2022-11-19T17:37:46.085Z,14.07
2022-11-19T17:40:58.760Z,10.55
2022-11-19T17:44:14.682Z,13.20
2022-11-19T17:47:22.722Z,17.40
2022-11-19T17:50:20.381Z,13.82
2022-11-19T17:53:19.482Z,10.82
2022-11-19T17:56:26.154Z,11.13
2022-11-19T17:59:23.046Z,18.23
2022-11-19T18:02:21.204Z,21.73
2022-11-19T18:05:21.353Z,21.27
2022-11-19T18:08:18.451Z,23.48
2022-11-19T18:11:25.403Z,17.30
2022-11-19T18:14:22.334Z,15.63
2022-11-19T18:17:19.288Z,20.50
2022-11-19T18:20:16.665Z,17.00
2022-11-19T18:23:13.873Z,17.90
2022-11-19T18:26:12.522Z,25.65
2022-11-19T18:29:09.567Z,34.95
2022-11-19T18:32:06.541Z,31.42
2022-11-19T18:35:03.959Z,24.58
2022-11-19T18:38:00.810Z,11.40
2022-11-19T18:40:57.694Z,10.80
2022-11-19T18:44:12.985Z,12.05
2022-11-19T18:47:13.035Z,11.50
2022-11-19T18:50:12.407Z,22.52
2022-11-19T18:53:13.695Z,21.63
2022-11-19T18:56:19.041Z,12.40
2022-11-19T18:59:15.965Z,17.13
2022-11-19T19:02:12.951Z,20.52
2022-11-19T19:05:10.102Z,16.67
2022-11-19T19:08:07.586Z,21.38
2022-11-19T19:11:26.212Z,25.38
2022-11-19T19:14:23.178Z,30.25
2022-11-19T19:17:20.283Z,28.63
2022-11-19T19:20:17.239Z,31.83
2022-11-19T19:23:14.075Z,27.83
2022-11-19T19:26:12.853Z,19.45
2022-11-19T19:29:09.754Z,17.17
2022-11-19T19:32:07.546Z,16.75
2022-11-19T19:35:04.854Z,15.18
2022-11-19T19:38:02.158Z,15.65
2022-11-19T19:41:10.705Z,12.10
2022-11-19T19:44:07.601Z,27.00
2022-11-19T19:47:05.460Z,32.65
2022-11-19T19:50:02.379Z,20.40
2022-11-19T19:53:00.107Z,20.98
2022-11-19T19:56:28.913Z,14.45
2022-11-19T19:59:25.809Z,22.23
2022-11-19T20:02:22.789Z,27.40
2022-11-19T20:05:19.767Z,13.27
2022-11-19T20:08:16.845Z,27.48
2022-11-19T20:11:21.513Z,32.28
2022-11-19T20:14:18.364Z,25.75
2022-11-19T20:17:15.270Z,21.15
2022-11-19T20:20:12.649Z,34.03
2022-11-19T20:23:09.538Z,28.98
2022-11-19T20:26:20.237Z,21.08
2022-11-19T20:29:17.705Z,14.30
2022-11-19T20:32:14.713Z,14.07
2022-11-19T20:35:11.905Z,20.67
2022-11-19T20:38:08.834Z,12.23
2022-11-19T20:41:29.643Z,19.75
2022-11-19T20:44:26.572Z,19.40
2022-11-19T20:47:23.514Z,15.32
2022-11-19T20:50:20.404Z,13.60
2022-11-19T20:53:17.248Z,14.50
2022-11-19T20:56:14.596Z,11.80
2022-11-19T20:59:12.670Z,12.85
2022-11-19T21:02:10.315Z,14.75
2022-11-19T21:05:08.025Z,14.48
2022-11-19T21:08:05.135Z,13.30
2022-11-19T21:11:11.432Z,13.60
2022-11-19T21:14:08.354Z,15.48
2022-11-19T21:17:05.397Z,14.90
2022-11-19T21:20:02.287Z,14.73
2022-11-19T21:22:59.186Z,12.93
2022-11-19T21:26:13.518Z,11.88
2022-11-19T21:29:10.460Z,9.98
2022-11-19T21:32:08.144Z,11.13
2022-11-19T21:35:05.752Z,11.57
2022-11-19T21:38:02.652Z,15.93
2022-11-19T21:40:59.864Z,15.63
2022-11-19T21:43:56.846Z,13.00
2022-11-19T21:46:53.743Z,13.52
2022-11-19T21:49:53.451Z,10.98
2022-11-19T21:52:50.309Z,10.15
2022-11-19T21:55:47.975Z,10.50
2022-11-19T21:58:44.897Z,10.85
2022-11-19T22:01:41.829Z,10.43
2022-11-19T22:04:38.774Z,12.68
2022-11-19T22:07:35.808Z,10.43
2022-11-19T22:10:32.775Z,11.25
2022-11-19T22:13:30.035Z,11.63
2022-11-19T22:16:28.056Z,9.38
2022-11-19T22:19:24.912Z,9.82
2022-11-19T22:22:21.812Z,9.85
2022-11-19T22:25:18.779Z,10.27
2022-11-19T22:28:15.649Z,9.63
2022-11-19T22:31:12.574Z,10.60
2022-11-19T22:34:11.111Z,8.65
2022-11-19T22:37:08.402Z,8.20
2022-11-19T22:40:05.866Z,8.90
2022-11-19T22:43:02.745Z,9.07
2022-11-19T22:46:00.097Z,7.25
2022-11-19T22:48:57.218Z,9.77
2022-11-19T22:51:54.619Z,9.18
2022-11-19T22:54:51.669Z,9.85
2022-11-19T22:57:48.555Z,11.13
2022-11-19T23:00:48.815Z,10.05
2022-11-19T23:06:43.345Z,11.65
2022-11-19T23:09:40.209Z,12.20
2022-11-19T23:12:55.816Z,12.13
2022-11-19T23:16:05.882Z,9.15
2022-11-19T23:19:03.021Z,8.40
2022-11-19T23:21:59.875Z,9.20
2022-11-19T23:24:56.922Z,9.88
2022-11-19T23:27:53.773Z,9.40
2022-11-19T23:30:50.848Z,10.52
2022-11-19T23:33:49.082Z,8.90
2022-11-19T23:36:46.356Z,9.45
2022-11-19T23:39:43.301Z,8.43
2022-11-19T23:42:40.162Z,8.68
2022-11-19T23:45:37.092Z,8.20
2022-11-19T23:48:35.199Z,8.57
2022-11-19T23:51:37.822Z,7.97
2022-11-19T23:54:34.704Z,7.78
2022-11-19T23:57:31.576Z,8.35
